createdAt,value
2022-08-17T00:01:31.480Z,13.80
2022-08-17T00:04:19.948Z,14.45
2022-08-17T00:06:49.104Z,15.15
2022-08-17T00:09:18.994Z,14.77
2022-08-17T00:12:34.924Z,16.42
2022-08-17T00:14:33.228Z,15.75
2022-08-17T00:16:59.759Z,15.85
2022-08-17T00:19:26.611Z,16.20
2022-08-17T00:22:31.324Z,15.35
2022-08-17T00:24:42.440Z,15.45
2022-08-17T00:27:08.861Z,15.07
2022-08-17T00:29:35.229Z,14.95
2022-08-17T00:33:12.189Z,15.68
2022-08-17T00:34:48.485Z,16.05
2022-08-17T00:37:15.011Z,15.57
2022-08-17T00:39:41.401Z,17.08
2022-08-17T00:42:18.126Z,14.93
2022-08-17T00:44:44.806Z,15.50
2022-08-17T00:47:11.175Z,15.90
2022-08-17T00:49:37.576Z,14.85
2022-08-17T00:52:11.627Z,15.88
2022-08-17T00:54:41.709Z,15.48
2022-08-17T00:57:11.127Z,16.35
2022-08-17T00:59:39.084Z,16.25
2022-08-17T01:02:06.445Z,15.68
2022-08-17T01:04:33.517Z,15.27
2022-08-17T01:07:01.007Z,15.80
2022-08-17T01:09:27.795Z,14.57
2022-08-17T01:11:54.266Z,15.77
2022-08-17T01:14:22.058Z,13.23
2022-08-17T01:16:50.138Z,14.55
2022-08-17T01:19:20.982Z,14.30
2022-08-17T01:24:14.405Z,13.02
2022-08-17T01:26:41.972Z,13.50
2022-08-17T01:29:08.678Z,13.57
2022-08-17T01:31:41.440Z,14.55
2022-08-17T01:34:09.537Z,12.82
2022-08-17T01:36:37.248Z,13.77
2022-08-17T01:39:05.171Z,14.27
2022-08-17T01:41:31.806Z,14.43
2022-08-17T01:44:00.346Z,16.05
2022-08-17T01:46:28.433Z,15.45
2022-08-17T01:48:56.273Z,16.20
2022-08-17T01:51:23.167Z,16.38
2022-08-17T01:53:51.534Z,15.55
2022-08-17T01:56:19.318Z,16.88
2022-08-17T01:58:46.215Z,16.63
2022-08-17T02:01:14.788Z,16.27
2022-08-17T02:03:41.861Z,18.58
2022-08-17T02:06:27.864Z,16.65
2022-08-17T02:09:03.271Z,17.15
2022-08-17T02:11:30.857Z,17.45
2022-08-17T02:14:03.023Z,16.45
2022-08-17T02:16:37.348Z,16.33
2022-08-17T02:19:06.793Z,17.63
2022-08-17T02:21:33.226Z,16.45
2022-08-17T02:24:00.154Z,15.60
2022-08-17T02:26:26.855Z,17.65
2022-08-17T02:28:53.639Z,16.75
2022-08-17T02:31:21.259Z,16.10
2022-08-17T02:33:47.709Z,17.13
2022-08-17T02:36:31.087Z,16.23
2022-08-17T02:39:00.406Z,16.38
2022-08-17T02:41:26.815Z,16.60
2022-08-17T02:43:53.588Z,15.95
2022-08-17T02:46:20.043Z,15.65
2022-08-17T02:48:46.568Z,16.70
2022-08-17T02:51:12.989Z,16.25
2022-08-17T02:53:39.364Z,15.10
2022-08-17T02:56:05.825Z,17.55
2022-08-17T02:58:35.283Z,16.67
2022-08-17T03:01:03.338Z,17.60
2022-08-17T03:03:29.831Z,15.00
2022-08-17T03:05:56.378Z,17.00
2022-08-17T03:08:23.400Z,16.45
2022-08-17T03:10:50.483Z,16.00
2022-08-17T03:13:17.013Z,16.20
2022-08-17T03:15:47.590Z,15.68
2022-08-17T03:18:25.308Z,15.85
2022-08-17T03:20:57.206Z,17.55
2022-08-17T03:23:25.817Z,17.23
2022-08-17T03:25:54.449Z,19.42
2022-08-17T03:28:21.643Z,17.42
2022-08-17T03:30:48.076Z,18.58
2022-08-17T03:33:14.707Z,18.00
2022-08-17T03:35:41.197Z,17.38
2022-08-17T03:38:08.625Z,19.67
2022-08-17T03:40:56.594Z,19.77
2022-08-17T03:43:23.868Z,18.17
2022-08-17T03:46:26.936Z,18.48
2022-08-17T03:49:14.230Z,17.77
2022-08-17T03:51:59.197Z,17.92
2022-08-17T03:54:43.988Z,19.98
2022-08-17T03:57:11.042Z,19.08
2022-08-17T03:59:37.923Z,18.55
2022-08-17T04:02:18.838Z,18.17
2022-08-17T04:07:11.559Z,19.42
2022-08-17T04:09:38.096Z,20.20
2022-08-17T04:12:05.259Z,20.65
2022-08-17T04:14:51.976Z,23.05
2022-08-17T04:17:20.950Z,22.63
2022-08-17T04:19:47.350Z,24.45
2022-08-17T04:22:33.343Z,23.60
2022-08-17T04:25:09.128Z,25.45
2022-08-17T04:27:35.750Z,23.80
2022-08-17T04:30:02.224Z,23.90
2022-08-17T04:33:03.605Z,23.73
2022-08-17T04:35:26.816Z,24.27
2022-08-17T04:37:55.289Z,25.65
2022-08-17T04:40:41.414Z,26.38
2022-08-17T04:43:09.296Z,25.05
2022-08-17T04:45:40.386Z,26.58
2022-08-17T04:48:21.855Z,25.95
2022-08-17T04:50:51.692Z,26.02
2022-08-17T04:53:18.131Z,26.05
2022-08-17T04:55:44.525Z,27.20
2022-08-17T04:58:10.978Z,26.33
2022-08-17T05:00:38.472Z,27.23
2022-08-17T05:03:05.253Z,26.58
2022-08-17T05:05:33.389Z,25.58
2022-08-17T05:08:03.865Z,27.45
2022-08-17T05:10:33.269Z,26.50
2022-08-17T05:13:07.077Z,25.77
2022-08-17T05:15:36.009Z,27.27
2022-08-17T05:18:02.926Z,27.83
2022-08-17T05:20:29.367Z,27.90
2022-08-17T05:22:57.268Z,28.15
2022-08-17T05:25:36.280Z,26.50
2022-08-17T05:28:04.490Z,26.83
2022-08-17T05:30:32.774Z,26.63
2022-08-17T05:33:00.792Z,26.52
2022-08-17T05:35:29.462Z,27.73
2022-08-17T05:37:56.754Z,28.33
2022-08-17T05:40:26.131Z,26.85
2022-08-17T05:43:04.725Z,26.88
2022-08-17T05:45:54.668Z,23.15
2022-08-17T05:48:18.397Z,22.20
2022-08-17T05:50:51.924Z,19.75
2022-08-17T05:53:21.303Z,19.85
2022-08-17T05:55:55.368Z,19.95
2022-08-17T05:58:25.055Z,18.88
2022-08-17T06:00:55.924Z,18.67
2022-08-17T06:03:34.623Z,18.52
2022-08-17T06:06:08.279Z,19.08
2022-08-17T06:08:48.113Z,17.75
2022-08-17T06:11:19.868Z,17.77
2022-08-17T06:13:54.085Z,16.75
2022-08-17T06:16:33.611Z,15.93
2022-08-17T06:19:05.678Z,15.52
2022-08-17T06:24:23.421Z,17.92
2022-08-17T06:26:50.402Z,16.65
2022-08-17T06:29:19.787Z,16.23
2022-08-17T06:31:46.193Z,15.27
2022-08-17T06:34:12.665Z,17.02
2022-08-17T06:36:58.179Z,16.67
2022-08-17T06:39:31.654Z,16.67
2022-08-17T06:42:05.593Z,17.95
2022-08-17T06:44:51.606Z,17.00
2022-08-17T06:47:28.786Z,16.33
2022-08-17T06:50:01.104Z,17.13
2022-08-17T06:52:45.410Z,15.30
2022-08-17T06:55:21.286Z,16.00
2022-08-17T06:57:51.238Z,16.08
2022-08-17T07:00:19.615Z,14.67
2022-08-17T07:02:58.326Z,15.68
2022-08-17T07:05:28.253Z,14.77
2022-08-17T07:08:01.892Z,16.90
2022-08-17T07:10:31.183Z,15.55
2022-08-17T07:13:13.973Z,15.63
2022-08-17T07:15:42.431Z,14.40
2022-08-17T07:18:09.711Z,14.57
2022-08-17T07:20:37.837Z,13.30
2022-08-17T07:23:08.620Z,12.88
2022-08-17T07:28:04.244Z,11.77
2022-08-17T07:30:45.507Z,11.75
2022-08-17T07:33:24.665Z,11.60
2022-08-17T07:35:52.085Z,10.65
2022-08-17T07:38:30.499Z,11.20
2022-08-17T07:41:06.205Z,11.07
2022-08-17T07:43:36.738Z,10.75
2022-08-17T07:46:24.848Z,11.02
2022-08-17T07:48:52.982Z,10.27
2022-08-17T07:51:33.389Z,10.27
2022-08-17T07:54:14.034Z,10.77
2022-08-17T07:59:10.526Z,10.18
2022-08-17T08:01:39.578Z,10.68
2022-08-17T08:04:29.139Z,10.90
2022-08-17T08:07:20.194Z,9.95
2022-08-17T08:09:59.508Z,10.65
2022-08-17T08:12:45.274Z,9.93
2022-08-17T08:15:20.102Z,10.55
2022-08-17T08:17:52.938Z,11.18
2022-08-17T08:20:51.820Z,10.55
2022-08-17T08:23:12.256Z,10.43
2022-08-17T08:25:38.646Z,10.32
2022-08-17T08:28:08.062Z,10.70
2022-08-17T08:30:36.194Z,11.57
2022-08-17T08:33:21.262Z,10.50
2022-08-17T08:35:53.755Z,10.05
2022-08-17T08:38:23.549Z,10.30
2022-08-17T08:40:54.242Z,10.02
2022-08-17T08:43:26.570Z,10.30
2022-08-17T08:46:11.748Z,10.23
2022-08-17T08:48:58.066Z,9.82
2022-08-17T08:51:43.918Z,9.88
2022-08-17T08:54:26.592Z,9.18
2022-08-17T08:57:30.754Z,9.55
2022-08-17T09:00:17.639Z,9.05
2022-08-17T09:02:53.459Z,9.43
2022-08-17T09:05:19.850Z,8.38
2022-08-17T09:07:59.802Z,9.35
2022-08-17T09:10:39.137Z,9.63
2022-08-17T09:13:19.502Z,9.57
2022-08-17T09:15:47.861Z,8.90
2022-08-17T09:19:00.512Z,8.60
2022-08-17T09:21:18.200Z,9.57
2022-08-17T09:24:04.832Z,9.52
2022-08-17T09:26:37.837Z,8.43
2022-08-17T09:29:07.259Z,9.00
2022-08-17T09:31:46.467Z,8.77
2022-08-17T09:34:19.737Z,9.40
2022-08-17T09:36:56.599Z,9.43
2022-08-17T09:39:27.323Z,9.98
2022-08-17T09:44:23.939Z,10.88
2022-08-17T09:47:09.982Z,10.75
2022-08-17T09:49:48.449Z,10.50
2022-08-17T09:52:19.968Z,10.32
2022-08-17T09:54:46.941Z,10.52
2022-08-17T09:57:32.189Z,9.77
2022-08-17T10:00:17.336Z,9.82
2022-08-17T10:03:22.353Z,9.85
2022-08-17T10:06:02.795Z,10.07
2022-08-17T10:08:54.633Z,10.25
2022-08-17T10:11:59.582Z,10.23
2022-08-17T10:14:36.835Z,9.23
2022-08-17T10:17:07.452Z,9.23
2022-08-17T10:19:36.866Z,9.73
2022-08-17T10:22:34.470Z,9.20
2022-08-17T10:25:26.016Z,8.73
2022-08-17T10:28:01.602Z,8.40
2022-08-17T10:30:44.186Z,9.40
2022-08-17T10:33:42.747Z,9.07
2022-08-17T10:36:14.560Z,8.27
2022-08-17T10:38:48.234Z,8.48
2022-08-17T10:41:27.101Z,8.32
2022-08-17T10:44:36.691Z,8.48
2022-08-17T10:46:46.280Z,8.48
2022-08-17T10:49:18.628Z,8.45
2022-08-17T10:51:47.761Z,7.90
2022-08-17T10:54:26.296Z,6.72
2022-08-17T10:56:56.575Z,6.80
2022-08-17T10:59:34.850Z,6.82
2022-08-17T11:02:12.150Z,7.20
2022-08-17T11:04:57.401Z,7.20
2022-08-17T11:07:32.877Z,6.90
2022-08-17T11:10:17.699Z,7.05
2022-08-17T11:12:44.123Z,8.35
2022-08-17T11:15:10.563Z,7.20
2022-08-17T11:17:52.568Z,6.60
2022-08-17T11:20:24.354Z,6.70
2022-08-17T11:23:10.137Z,6.97
2022-08-17T11:25:39.434Z,6.47
2022-08-17T11:28:34.528Z,6.07
2022-08-17T11:31:20.950Z,6.75
2022-08-17T11:34:23.091Z,6.88
2022-08-17T11:37:07.989Z,6.95
2022-08-17T11:39:34.518Z,6.38
2022-08-17T11:42:09.799Z,6.30
2022-08-17T11:44:42.864Z,6.35
2022-08-17T11:47:27.710Z,6.43
2022-08-17T11:50:23.409Z,6.43
2022-08-17T11:52:52.218Z,6.30
2022-08-17T11:55:39.392Z,6.45
2022-08-17T11:58:08.159Z,6.15
2022-08-17T12:00:46.963Z,6.15
2022-08-17T12:03:55.269Z,6.22
2022-08-17T12:06:30.258Z,6.63
2022-08-17T12:09:26.509Z,5.68
2022-08-17T12:12:14.561Z,5.78
2022-08-17T12:15:09.023Z,5.43
2022-08-17T12:17:40.615Z,5.75
2022-08-17T12:20:14.635Z,6.10
2022-08-17T12:22:57.692Z,6.13
2022-08-17T12:25:33.097Z,6.20
2022-08-17T12:28:06.411Z,6.00
2022-08-17T12:30:34.322Z,5.70
2022-08-17T12:33:00.794Z,6.70
2022-08-17T12:35:33.218Z,5.70
2022-08-17T12:38:00.067Z,6.22
2022-08-17T12:40:28.010Z,6.25
2022-08-17T12:42:55.984Z,6.60
2022-08-17T12:45:24.789Z,6.05
2022-08-17T12:47:59.904Z,5.78
2022-08-17T12:50:28.684Z,6.03
2022-08-17T12:53:01.148Z,6.00
2022-08-17T12:55:32.508Z,5.90
2022-08-17T12:58:00.813Z,6.00
2022-08-17T13:00:35.516Z,7.32
2022-08-17T13:03:05.887Z,6.05
2022-08-17T13:05:34.009Z,5.57
2022-08-17T13:08:00.535Z,6.20
2022-08-17T13:10:32.413Z,6.90
2022-08-17T13:13:03.731Z,5.97
2022-08-17T13:15:33.148Z,6.53
2022-08-17T13:18:06.549Z,7.20
2022-08-17T13:20:34.023Z,6.95
2022-08-17T13:23:02.118Z,6.10
2022-08-17T13:25:28.922Z,5.32
2022-08-17T13:27:55.674Z,5.60
2022-08-17T13:30:28.289Z,5.47
2022-08-17T13:32:55.893Z,5.68
2022-08-17T13:35:29.620Z,5.53
2022-08-17T13:38:01.487Z,5.35
2022-08-17T13:40:38.791Z,5.80
2022-08-17T13:43:05.480Z,5.40
2022-08-17T13:45:39.988Z,5.22
2022-08-17T13:48:08.594Z,5.53
2022-08-17T13:50:40.215Z,5.70
2022-08-17T13:53:15.943Z,5.43
2022-08-17T13:55:47.418Z,5.38
2022-08-17T13:58:19.074Z,4.97
2022-08-17T14:00:45.454Z,5.70
2022-08-17T14:03:12.019Z,5.40
2022-08-17T14:05:38.790Z,5.53
2022-08-17T14:08:07.033Z,5.25
2022-08-17T14:10:36.183Z,4.85
2022-08-17T14:13:03.359Z,5.28
2022-08-17T14:15:55.400Z,5.60
2022-08-17T14:18:18.122Z,5.38
2022-08-17T14:21:01.941Z,4.80
2022-08-17T14:23:32.923Z,4.68
2022-08-17T14:25:59.801Z,5.18
2022-08-17T14:28:26.343Z,5.15
2022-08-17T14:30:54.341Z,5.15
2022-08-17T14:33:24.629Z,4.60
2022-08-17T14:35:53.514Z,5.40
2022-08-17T14:38:20.102Z,5.40
2022-08-17T14:40:47.366Z,4.28
2022-08-17T14:43:15.681Z,5.32
2022-08-17T14:45:42.443Z,5.18
2022-08-17T14:48:09.078Z,5.47
2022-08-17T14:50:36.290Z,5.15
2022-08-17T14:53:04.569Z,5.35
2022-08-17T14:55:31.161Z,6.03
2022-08-17T14:57:57.784Z,5.38
2022-08-17T15:00:24.401Z,5.10
2022-08-17T15:02:55.207Z,5.65
2022-08-17T15:05:22.924Z,4.97
2022-08-17T15:07:49.525Z,4.97
2022-08-17T15:10:17.173Z,5.40
2022-08-17T15:12:44.013Z,4.97
2022-08-17T15:15:11.756Z,5.88
2022-08-17T15:17:44.801Z,5.45
2022-08-17T15:20:16.736Z,5.22
2022-08-17T15:22:43.858Z,5.82
2022-08-17T15:25:10.583Z,5.90
2022-08-17T15:27:36.997Z,6.38
2022-08-17T15:30:05.698Z,5.60
2022-08-17T15:35:01.041Z,5.85
2022-08-17T15:37:28.399Z,5.72
2022-08-17T15:39:55.235Z,5.75
2022-08-17T15:42:22.218Z,6.13
2022-08-17T15:44:49.056Z,6.00
2022-08-17T15:47:18.914Z,5.85
2022-08-17T15:49:45.660Z,6.00
2022-08-17T15:52:16.560Z,5.70
2022-08-17T15:54:45.277Z,6.72
2022-08-17T15:57:13.018Z,7.40
2022-08-17T15:59:40.357Z,6.32
2022-08-17T16:03:45.507Z,6.78
2022-08-17T16:05:10.259Z,6.75
2022-08-17T16:07:36.875Z,7.25
2022-08-17T16:10:03.941Z,7.03
2022-08-17T16:12:30.335Z,8.05
2022-08-17T16:14:57.013Z,7.10
2022-08-17T16:17:49.509Z,7.28
2022-08-17T16:20:10.497Z,7.60
2022-08-17T16:22:47.752Z,7.80
2022-08-17T16:25:16.510Z,7.07
2022-08-17T16:27:43.394Z,8.30
2022-08-17T16:30:15.055Z,7.07
2022-08-17T16:32:44.002Z,7.95
2022-08-17T16:35:11.427Z,7.40
2022-08-17T16:37:39.485Z,7.15
2022-08-17T16:40:08.410Z,7.40
2022-08-17T16:42:36.988Z,7.35
2022-08-17T16:45:14.611Z,6.88
2022-08-17T16:47:41.973Z,8.40
2022-08-17T16:50:09.645Z,8.38
2022-08-17T16:52:36.588Z,8.27
2022-08-17T16:55:03.863Z,9.10
2022-08-17T16:57:30.337Z,8.00
2022-08-17T16:59:56.940Z,8.10
2022-08-17T17:02:31.645Z,8.98
2022-08-17T17:05:03.041Z,7.97
2022-08-17T17:07:38.198Z,7.82
2022-08-17T17:10:09.522Z,8.52
2022-08-17T17:13:01.724Z,8.55
2022-08-17T17:15:27.577Z,8.15
2022-08-17T17:17:57.482Z,8.15
2022-08-17T17:20:33.043Z,9.38
2022-08-17T17:23:12.111Z,9.57
2022-08-17T17:25:53.405Z,8.68
2022-08-17T17:31:01.952Z,9.02
2022-08-17T17:33:28.988Z,8.60
2022-08-17T17:36:06.991Z,8.60
2022-08-17T17:38:53.959Z,9.10
2022-08-17T17:41:26.561Z,9.18
2022-08-17T17:43:56.694Z,8.38
2022-08-17T17:46:30.508Z,8.05
2022-08-17T17:48:57.393Z,9.85
2022-08-17T17:52:03.563Z,9.40
2022-08-17T17:54:47.322Z,9.02
2022-08-17T17:57:40.180Z,9.00
2022-08-17T18:00:13.609Z,8.77
2022-08-17T18:02:52.078Z,9.27
2022-08-17T18:05:38.760Z,8.38
2022-08-17T18:08:10.859Z,9.20
2022-08-17T18:10:47.440Z,9.23
2022-08-17T18:13:35.456Z,9.60
2022-08-17T18:16:04.791Z,9.60
2022-08-17T18:18:38.211Z,9.45
2022-08-17T18:21:16.264Z,9.05
2022-08-17T18:23:47.244Z,9.68
2022-08-17T18:26:33.374Z,9.60
2022-08-17T18:29:00.597Z,10.57
2022-08-17T18:31:27.114Z,10.00
2022-08-17T18:33:54.687Z,10.40
2022-08-17T18:36:27.773Z,10.32
2022-08-17T18:39:10.015Z,10.32
2022-08-17T18:41:41.438Z,10.75
2022-08-17T18:44:26.580Z,10.35
2022-08-17T18:47:16.479Z,10.10
2022-08-17T18:49:44.307Z,10.23
2022-08-17T18:52:10.901Z,11.07
2022-08-17T18:54:37.643Z,10.40
2022-08-17T18:57:04.427Z,10.02
2022-08-17T18:59:41.807Z,10.30
2022-08-17T19:02:20.713Z,10.68
2022-08-17T19:05:13.436Z,11.10
2022-08-17T19:07:45.159Z,10.93
2022-08-17T19:10:17.796Z,10.68
2022-08-17T19:12:44.233Z,11.50
2022-08-17T19:15:12.552Z,11.27
2022-08-17T19:17:42.146Z,10.65
2022-08-17T19:20:17.580Z,11.00
2022-08-17T19:22:43.940Z,11.30
2022-08-17T19:25:17.242Z,12.30
2022-08-17T19:27:57.528Z,12.02
2022-08-17T19:30:25.135Z,12.25
2022-08-17T19:32:53.083Z,10.82
2022-08-17T19:35:20.593Z,11.65
2022-08-17T19:37:56.468Z,11.93
2022-08-17T19:40:54.561Z,11.90
2022-08-17T19:43:41.520Z,12.32
2022-08-17T19:46:26.697Z,11.27
2022-08-17T19:49:11.602Z,11.70
2022-08-17T19:51:50.568Z,12.10
2022-08-17T19:54:33.623Z,12.23
2022-08-17T19:57:08.783Z,11.68
2022-08-17T19:59:46.267Z,12.77
2022-08-17T20:02:35.701Z,12.10
2022-08-17T20:05:05.087Z,11.65
2022-08-17T20:07:39.321Z,12.15
2022-08-17T20:10:08.264Z,11.75
2022-08-17T20:12:36.241Z,11.40
2022-08-17T20:15:05.778Z,12.07
2022-08-17T20:17:35.111Z,12.15
2022-08-17T20:20:05.004Z,12.98
2022-08-17T20:22:36.812Z,13.03
2022-08-17T20:25:29.877Z,13.35
2022-08-17T20:28:06.371Z,13.45
2022-08-17T20:30:38.514Z,13.18
2022-08-17T20:33:06.709Z,12.82
2022-08-17T20:35:34.056Z,12.85
2022-08-17T20:38:05.486Z,12.13
2022-08-17T20:40:51.800Z,13.32
2022-08-17T20:43:42.970Z,12.25
2022-08-17T20:46:09.295Z,12.77
2022-08-17T20:48:41.633Z,13.48
2022-08-17T20:51:22.423Z,13.25
2022-08-17T20:53:54.838Z,13.38
2022-08-17T20:56:40.058Z,13.13
2022-08-17T20:59:06.462Z,13.80
2022-08-17T21:01:40.094Z,14.48
2022-08-17T21:04:08.315Z,13.13
2022-08-17T21:06:54.642Z,13.57
2022-08-17T21:09:29.744Z,14.13
2022-08-17T21:12:03.733Z,14.70
2022-08-17T21:14:40.818Z,14.43
2022-08-17T21:17:29.651Z,14.32
2022-08-17T21:20:14.512Z,13.05
2022-08-17T21:22:42.219Z,13.75
2022-08-17T21:25:24.635Z,14.65
2022-08-17T21:27:58.638Z,14.05
2022-08-17T21:30:27.851Z,14.70
2022-08-17T21:33:14.061Z,14.70
2022-08-17T21:36:01.807Z,15.50
2022-08-17T21:38:41.682Z,15.38
2022-08-17T21:41:18.730Z,13.82
2022-08-17T21:43:47.730Z,15.25
2022-08-17T21:46:31.422Z,14.77
2022-08-17T21:49:02.854Z,14.95
2022-08-17T21:51:37.633Z,15.55
2022-08-17T21:54:12.654Z,14.45
2022-08-17T21:56:41.443Z,13.35
2022-08-17T21:59:15.982Z,14.82
2022-08-17T22:01:43.047Z,13.95
2022-08-17T22:04:12.245Z,14.10
2022-08-17T22:06:42.323Z,13.65
2022-08-17T22:09:19.138Z,13.43
2022-08-17T22:11:53.132Z,13.52
2022-08-17T22:14:21.486Z,13.55
2022-08-17T22:16:48.250Z,15.45
2022-08-17T22:19:15.033Z,14.68
2022-08-17T22:21:41.409Z,15.85
2022-08-17T22:24:20.310Z,16.25
2022-08-17T22:27:01.945Z,14.88
2022-08-17T22:29:57.805Z,15.57
2022-08-17T22:32:31.968Z,15.82
2022-08-17T22:35:16.835Z,15.45
2022-08-17T22:37:43.212Z,15.85
2022-08-17T22:40:09.686Z,16.15
2022-08-17T22:42:44.227Z,15.30
2022-08-17T22:45:10.659Z,15.05
2022-08-17T22:47:40.916Z,16.50
2022-08-17T22:50:14.586Z,16.05
2022-08-17T22:53:10.647Z,15.40
2022-08-17T22:55:55.657Z,15.43
2022-08-17T22:58:42.569Z,16.63
2022-08-17T23:01:24.771Z,15.48
2022-08-17T23:04:02.788Z,15.43
2022-08-17T23:06:29.987Z,16.48
2022-08-17T23:08:57.590Z,16.13
2022-08-17T23:11:36.970Z,15.63
2022-08-17T23:14:13.771Z,16.00
2022-08-17T23:16:43.607Z,16.33
2022-08-17T23:19:10.922Z,16.27
2022-08-17T23:21:37.747Z,15.85
2022-08-17T23:24:05.870Z,16.95
2022-08-17T23:26:35.942Z,16.25
2022-08-17T23:29:04.403Z,15.88
2022-08-17T23:31:34.670Z,15.15
2022-08-17T23:34:01.762Z,15.30
2022-08-17T23:36:28.410Z,16.10
2022-08-17T23:38:54.782Z,17.13
2022-08-17T23:41:22.310Z,15.00
2022-08-17T23:43:50.348Z,14.93
2022-08-17T23:46:17.023Z,14.93
2022-08-17T23:48:43.948Z,15.15
2022-08-17T23:51:21.017Z,15.35
2022-08-17T23:53:48.721Z,15.80
2022-08-17T23:56:15.271Z,15.48
2022-08-17T23:58:42.675Z,16.15
